San Juan, PR (00923)

12:18 AM AST on August 31, 2014 (GMT -0400)
Santurce | Change Station
CLOSE
Current Station
Personal Weather Station
Location: San Juan, PR
Elevation: 33 ft
Nearby Weather Stations

Elev 33 ft 18.45 °N, 66.05 °W | Updated 4 seconds ago

Partly Cloudy
Partly Cloudy
82.2 °F
Feels Like 89 °F
N
0.0
Wind Variable Wind from SE
Gusts 0.0 mph

Today
High -- | Low -- °F
--% Chance of Precip.
Yesterday
High -- | Low -- °F
Precip. -- in
6:09 AM 6:39 PM
Waxing Crescent, 27% visible
Pressure 30.04 in
Visibility 10.0 miles
Clouds Few 3200 ft
Heat Index 89 °F
Dew Point 75 °F
Humidity 78%
Rainfall 0.00 in
Snow Depth Not available.
UV 0 out of 12
Pollen Not available.
Air Quality Not available.
Flu Activity Not available.
METAR TJSJ 310356Z 11004KT 10SM FEW032 27/24 A3005 RMK AO2 SLP173 T02670244 403220256

More Conditions Fewer Conditions

Pressure 30.04 in
Visibility 10.0 miles
Clouds Few 3200 ft
Heat Index 89 °F
Dew Point 75 °F
Humidity 78%
Rainfall 0.00 in
Snow Depth Not available.
UV 0 out of 12
Pollen Not available.
Air Quality Not available.
Flu Activity Not available.
METAR TJSJ 310356Z 11004KT 10SM FEW032 27/24 A3005 RMK AO2 SLP173 T02670244 403220256

More Conditions Fewer Conditions

10-Day Weather Forecast

Almanac

Astronomy

Aug. 31, 2014 Rise Set
Actual Time 6:09 AM AST 6:39 PM AST
Civil Twilight 5:47 AM AST 7:01 PM AST
Nautical Twilight 5:21 AM AST 7:27 PM AST
Astronomical Twilight 4:55 AM AST 7:53 PM AST
Moon 11:01 AM AST 10:43 PM AST
Length of Visible Light 13h 14m
Length of Day
12h 29m
Tomorrow will be 1m 0s shorter.
Waxing Crescent, 27% of the Moon is Illuminated
Today
Waxing Crescent
Sep 2
First Quarter
Sep 8
Full
Sep 15
Last Quarter
Sep 24
New

Community

WunderPhotos

Upload Photos

1,748,779 photos uploaded!

Nearby

Snow Depth

Station Depth Elevation
No new snow has been reported.

Earthquake Activity

City Distance Mag. Time & Date
No recent earthquake activity has been reported nearby.
Minimum magnitude displayed is 2.5.

Coastal Water Temperatures

Place Temperature
San Juan, PR 84.9 °F
Mayaguez, PR 84.9 °F
Esperanza, PR 84.0 °F

Nearby Weather Stations